sensor_id;sensor_type;location;lat;lon;timestamp;P1;durP1;ratioP1;P2;durP2;ratioP2
8952;SDS011;4511;50.890;8.054;2023-06-22T00:00:33;9.97;;;9.07;;
8952;SDS011;4511;50.890;8.054;2023-06-22T00:03:00;10.10;;;9.17;;
8952;SDS011;4511;50.890;8.054;2023-06-22T00:05:28;10.30;;;9.40;;
8952;SDS011;4511;50.890;8.054;2023-06-22T00:07:55;10.13;;;9.10;;
8952;SDS011;4511;50.890;8.054;2023-06-22T00:10:22;10.43;;;9.13;;
8952;SDS011;4511;50.890;8.054;2023-06-22T00:12:49;9.87;;;8.87;;
8952;SDS011;4511;50.890;8.054;2023-06-22T00:15:16;10.20;;;9.20;;
8952;SDS011;4511;50.890;8.054;2023-06-22T00:17:43;10.30;;;9.40;;
8952;SDS011;4511;50.890;8.054;2023-06-22T00:20:10;10.50;;;9.63;;
8952;SDS011;4511;50.890;8.054;2023-06-22T00:22:40;10.37;;;9.40;;
8952;SDS011;4511;50.890;8.054;2023-06-22T00:25:08;10.57;;;9.67;;
8952;SDS011;4511;50.890;8.054;2023-06-22T00:27:35;10.43;;;9.47;;
8952;SDS011;4511;50.890;8.054;2023-06-22T00:30:02;9.57;;;8.83;;
8952;SDS011;4511;50.890;8.054;2023-06-22T00:32:29;11.07;;;9.93;;
8952;SDS011;4511;50.890;8.054;2023-06-22T00:34:56;10.33;;;9.53;;
8952;SDS011;4511;50.890;8.054;2023-06-22T00:37:23;10.13;;;9.23;;
8952;SDS011;4511;50.890;8.054;2023-06-22T00:39:51;10.70;;;9.77;;
8952;SDS011;4511;50.890;8.054;2023-06-22T00:42:18;10.20;;;9.33;;
8952;SDS011;4511;50.890;8.054;2023-06-22T00:44:45;10.60;;;9.50;;
8952;SDS011;4511;50.890;8.054;2023-06-22T00:47:12;10.67;;;9.77;;
8952;SDS011;4511;50.890;8.054;2023-06-22T00:49:40;10.73;;;9.60;;
8952;SDS011;4511;50.890;8.054;2023-06-22T00:52:08;10.53;;;9.30;;
8952;SDS011;4511;50.890;8.054;2023-06-22T00:54:39;10.60;;;9.70;;
8952;SDS011;4511;50.890;8.054;2023-06-22T00:57:12;11.30;;;10.40;;
8952;SDS011;4511;50.890;8.054;2023-06-22T00:59:41;10.80;;;9.77;;
8952;SDS011;4511;50.890;8.054;2023-06-22T01:02:08;10.23;;;9.23;;
8952;SDS011;4511;50.890;8.054;2023-06-22T01:04:35;11.13;;;9.70;;
8952;SDS011;4511;50.890;8.054;2023-06-22T01:07:05;10.30;;;9.40;;
8952;SDS011;4511;50.890;8.054;2023-06-22T01:09:41;10.80;;;9.77;;
8952;SDS011;4511;50.890;8.054;2023-06-22T01:12:16;10.87;;;9.80;;
8952;SDS011;4511;50.890;8.054;2023-06-22T01:14:47;11.17;;;9.97;;
8952;SDS011;4511;50.890;8.054;2023-06-22T01:17:19;12.03;;;10.03;;
8952;SDS011;4511;50.890;8.054;2023-06-22T01:19:46;10.80;;;9.90;;
8952;SDS011;4511;50.890;8.054;2023-06-22T01:22:20;11.17;;;9.93;;
8952;SDS011;4511;50.890;8.054;2023-06-22T01:24:51;11.03;;;10.00;;
8952;SDS011;4511;50.890;8.054;2023-06-22T01:27:32;11.77;;;10.40;;
8952;SDS011;4511;50.890;8.054;2023-06-22T01:30:07;11.30;;;10.40;;
8952;SDS011;4511;50.890;8.054;2023-06-22T01:32:37;13.10;;;10.93;;
8952;SDS011;4511;50.890;8.054;2023-06-22T01:35:05;11.37;;;10.03;;
8952;SDS011;4511;50.890;8.054;2023-06-22T01:37:34;10.83;;;9.93;;
8952;SDS011;4511;50.890;8.054;2023-06-22T01:40:02;12.37;;;11.07;;
8952;SDS011;4511;50.890;8.054;2023-06-22T01:42:30;11.23;;;9.97;;
8952;SDS011;4511;50.890;8.054;2023-06-22T01:44:58;11.23;;;10.23;;
8952;SDS011;4511;50.890;8.054;2023-06-22T01:47:27;10.93;;;10.03;;
8952;SDS011;4511;50.890;8.054;2023-06-22T01:49:54;12.17;;;10.90;;
8952;SDS011;4511;50.890;8.054;2023-06-22T01:52:21;12.00;;;10.80;;
8952;SDS011;4511;50.890;8.054;2023-06-22T01:54:48;11.93;;;10.77;;
8952;SDS011;4511;50.890;8.054;2023-06-22T01:57:15;11.77;;;10.87;;
8952;SDS011;4511;50.890;8.054;2023-06-22T01:59:44;12.00;;;11.00;;
8952;SDS011;4511;50.890;8.054;2023-06-22T02:02:16;13.93;;;11.33;;
8952;SDS011;4511;50.890;8.054;2023-06-22T02:04:54;12.10;;;11.00;;
8952;SDS011;4511;50.890;8.054;2023-06-22T02:07:26;12.30;;;11.30;;
8952;SDS011;4511;50.890;8.054;2023-06-22T02:09:57;12.10;;;11.00;;
8952;SDS011;4511;50.890;8.054;2023-06-22T02:12:25;12.33;;;11.03;;
8952;SDS011;4511;50.890;8.054;2023-06-22T02:14:54;12.50;;;11.20;;
8952;SDS011;4511;50.890;8.054;2023-06-22T02:17:22;12.47;;;11.30;;
8952;SDS011;4511;50.890;8.054;2023-06-22T02:19:50;16.57;;;13.03;;
8952;SDS011;4511;50.890;8.054;2023-06-22T02:22:18;15.50;;;12.80;;
8952;SDS011;4511;50.890;8.054;2023-06-22T02:24:45;35.83;;;16.77;;
8952;SDS011;4511;50.890;8.054;2023-06-22T02:27:12;15.87;;;13.37;;
8952;SDS011;4511;50.890;8.054;2023-06-22T02:29:38;16.03;;;13.67;;
8952;SDS011;4511;50.890;8.054;2023-06-22T02:32:05;15.30;;;13.70;;
8952;SDS011;4511;50.890;8.054;2023-06-22T02:34:33;16.63;;;15.17;;
8952;SDS011;4511;50.890;8.054;2023-06-22T02:36:59;19.83;;;17.80;;
8952;SDS011;4511;50.890;8.054;2023-06-22T02:39:28;18.60;;;16.93;;
8952;SDS011;4511;50.890;8.054;2023-06-22T02:41:55;17.57;;;15.90;;
8952;SDS011;4511;50.890;8.054;2023-06-22T02:44:22;17.83;;;16.23;;
8952;SDS011;4511;50.890;8.054;2023-06-22T02:46:49;15.40;;;13.80;;
8952;SDS011;4511;50.890;8.054;2023-06-22T02:49:16;16.70;;;14.53;;
8952;SDS011;4511;50.890;8.054;2023-06-22T02:51:44;17.47;;;15.77;;
8952;SDS011;4511;50.890;8.054;2023-06-22T02:54:14;16.87;;;15.23;;
8952;SDS011;4511;50.890;8.054;2023-06-22T02:56:42;17.37;;;15.60;;
8952;SDS011;4511;50.890;8.054;2023-06-22T02:59:09;17.73;;;16.10;;
8952;SDS011;4511;50.890;8.054;2023-06-22T03:01:36;16.60;;;14.90;;
8952;SDS011;4511;50.890;8.054;2023-06-22T03:04:05;18.90;;;17.10;;
8952;SDS011;4511;50.890;8.054;2023-06-22T03:06:32;21.20;;;19.07;;
8952;SDS011;4511;50.890;8.054;2023-06-22T03:08:59;25.60;;;21.43;;
8952;SDS011;4511;50.890;8.054;2023-06-22T03:11:28;19.53;;;17.63;;
8952;SDS011;4511;50.890;8.054;2023-06-22T03:13:57;31.77;;;23.00;;
8952;SDS011;4511;50.890;8.054;2023-06-22T03:16:24;22.30;;;19.97;;
8952;SDS011;4511;50.890;8.054;2023-06-22T03:18:51;21.57;;;19.23;;
8952;SDS011;4511;50.890;8.054;2023-06-22T03:21:19;21.93;;;19.60;;
8952;SDS011;4511;50.890;8.054;2023-06-22T03:23:48;22.13;;;19.67;;
8952;SDS011;4511;50.890;8.054;2023-06-22T03:26:16;22.83;;;20.47;;
8952;SDS011;4511;50.890;8.054;2023-06-22T03:28:43;23.37;;;20.33;;
8952;SDS011;4511;50.890;8.054;2023-06-22T03:31:11;27.07;;;21.87;;
8952;SDS011;4511;50.890;8.054;2023-06-22T03:33:38;93.00;;;26.70;;
8952;SDS011;4511;50.890;8.054;2023-06-22T03:36:05;160.53;;;29.70;;
8952;SDS011;4511;50.890;8.054;2023-06-22T03:38:32;29.33;;;19.87;;
8952;SDS011;4511;50.890;8.054;2023-06-22T03:40:58;34.50;;;11.90;;
8952;SDS011;4511;50.890;8.054;2023-06-22T03:43:25;10.93;;;9.00;;
8952;SDS011;4511;50.890;8.054;2023-06-22T03:45:52;10.57;;;9.50;;
8952;SDS011;4511;50.890;8.054;2023-06-22T03:48:20;13.57;;;11.47;;
8952;SDS011;4511;50.890;8.054;2023-06-22T03:50:47;14.67;;;13.27;;
8952;SDS011;4511;50.890;8.054;2023-06-22T03:53:14;12.40;;;10.73;;
8952;SDS011;4511;50.890;8.054;2023-06-22T03:55:45;12.23;;;10.97;;
8952;SDS011;4511;50.890;8.054;2023-06-22T03:58:14;10.43;;;9.47;;
8952;SDS011;4511;50.890;8.054;2023-06-22T04:00:41;10.77;;;9.67;;
8952;SDS011;4511;50.890;8.054;2023-06-22T04:03:08;9.47;;;8.57;;
8952;SDS011;4511;50.890;8.054;2023-06-22T04:05:39;9.30;;;8.50;;
8952;SDS011;4511;50.890;8.054;2023-06-22T04:08:06;10.30;;;9.33;;
8952;SDS011;4511;50.890;8.054;2023-06-22T04:10:33;10.57;;;9.63;;
8952;SDS011;4511;50.890;8.054;2023-06-22T04:13:00;11.33;;;9.93;;
8952;SDS011;4511;50.890;8.054;2023-06-22T04:15:27;9.90;;;9.00;;
8952;SDS011;4511;50.890;8.054;2023-06-22T04:17:54;10.67;;;9.77;;
8952;SDS011;4511;50.890;8.054;2023-06-22T04:20:21;12.40;;;10.90;;
8952;SDS011;4511;50.890;8.054;2023-06-22T04:22:51;13.13;;;10.03;;
8952;SDS011;4511;50.890;8.054;2023-06-22T04:25:19;11.93;;;10.93;;
8952;SDS011;4511;50.890;8.054;2023-06-22T04:27:46;12.13;;;10.87;;
8952;SDS011;4511;50.890;8.054;2023-06-22T04:30:13;11.30;;;10.40;;
8952;SDS011;4511;50.890;8.054;2023-06-22T04:32:41;10.73;;;9.73;;
8952;SDS011;4511;50.890;8.054;2023-06-22T04:35:08;11.63;;;10.60;;
8952;SDS011;4511;50.890;8.054;2023-06-22T04:37:35;10.97;;;9.97;;
8952;SDS011;4511;50.890;8.054;2023-06-22T04:40:04;12.37;;;11.37;;
8952;SDS011;4511;50.890;8.054;2023-06-22T04:42:33;13.07;;;11.87;;
8952;SDS011;4511;50.890;8.054;2023-06-22T04:45:01;13.30;;;12.10;;
8952;SDS011;4511;50.890;8.054;2023-06-22T04:47:27;12.23;;;11.03;;
8952;SDS011;4511;50.890;8.054;2023-06-22T04:49:54;12.87;;;11.77;;
8952;SDS011;4511;50.890;8.054;2023-06-22T04:52:21;12.97;;;11.90;;
8952;SDS011;4511;50.890;8.054;2023-06-22T04:54:49;13.17;;;11.97;;
8952;SDS011;4511;50.890;8.054;2023-06-22T04:57:22;13.27;;;12.07;;
8952;SDS011;4511;50.890;8.054;2023-06-22T04:59:55;14.70;;;13.20;;
8952;SDS011;4511;50.890;8.054;2023-06-22T05:02:22;15.87;;;14.43;;
8952;SDS011;4511;50.890;8.054;2023-06-22T05:04:57;15.00;;;13.60;;
8952;SDS011;4511;50.890;8.054;2023-06-22T05:07:23;14.80;;;13.33;;
8952;SDS011;4511;50.890;8.054;2023-06-22T05:09:50;16.30;;;14.40;;
8952;SDS011;4511;50.890;8.054;2023-06-22T05:12:17;15.67;;;14.23;;
8952;SDS011;4511;50.890;8.054;2023-06-22T05:14:45;15.43;;;14.03;;
8952;SDS011;4511;50.890;8.054;2023-06-22T05:17:12;14.67;;;13.27;;
8952;SDS011;4511;50.890;8.054;2023-06-22T05:19:39;16.43;;;14.67;;
8952;SDS011;4511;50.890;8.054;2023-06-22T05:22:10;16.50;;;14.87;;
8952;SDS011;4511;50.890;8.054;2023-06-22T05:24:37;16.93;;;15.17;;
8952;SDS011;4511;50.890;8.054;2023-06-22T05:27:04;15.77;;;14.27;;
8952;SDS011;4511;50.890;8.054;2023-06-22T05:29:32;15.63;;;14.07;;
8952;SDS011;4511;50.890;8.054;2023-06-22T05:32:00;15.50;;;14.10;;
8952;SDS011;4511;50.890;8.054;2023-06-22T05:34:27;16.03;;;14.63;;
8952;SDS011;4511;50.890;8.054;2023-06-22T05:36:54;15.30;;;13.90;;
8952;SDS011;4511;50.890;8.054;2023-06-22T05:39:23;13.97;;;12.77;;
8952;SDS011;4511;50.890;8.054;2023-06-22T05:41:51;15.27;;;13.87;;
8952;SDS011;4511;50.890;8.054;2023-06-22T05:44:18;14.27;;;12.97;;
8952;SDS011;4511;50.890;8.054;2023-06-22T05:46:45;14.80;;;13.37;;
8952;SDS011;4511;50.890;8.054;2023-06-22T05:49:14;15.03;;;13.70;;
8952;SDS011;4511;50.890;8.054;2023-06-22T05:51:41;14.60;;;13.40;;
8952;SDS011;4511;50.890;8.054;2023-06-22T05:54:08;14.40;;;13.20;;
8952;SDS011;4511;50.890;8.054;2023-06-22T05:56:35;13.03;;;11.83;;
8952;SDS011;4511;50.890;8.054;2023-06-22T05:59:02;13.90;;;12.60;;
8952;SDS011;4511;50.890;8.054;2023-06-22T06:01:29;12.63;;;11.53;;
8952;SDS011;4511;50.890;8.054;2023-06-22T06:04:00;11.70;;;10.70;;
8952;SDS011;4511;50.890;8.054;2023-06-22T06:06:30;11.27;;;10.27;;
8952;SDS011;4511;50.890;8.054;2023-06-22T06:08:57;11.20;;;10.10;;
8952;SDS011;4511;50.890;8.054;2023-06-22T06:11:24;10.73;;;9.73;;
8952;SDS011;4511;50.890;8.054;2023-06-22T06:13:51;11.80;;;10.60;;
8952;SDS011;4511;50.890;8.054;2023-06-22T06:16:18;10.63;;;9.73;;
8952;SDS011;4511;50.890;8.054;2023-06-22T06:18:45;10.90;;;9.80;;
8952;SDS011;4511;50.890;8.054;2023-06-22T06:21:13;10.13;;;9.10;;
8952;SDS011;4511;50.890;8.054;2023-06-22T06:23:42;10.27;;;9.27;;
8952;SDS011;4511;50.890;8.054;2023-06-22T06:26:09;9.47;;;8.43;;
8952;SDS011;4511;50.890;8.054;2023-06-22T06:28:36;8.60;;;7.80;;
8952;SDS011;4511;50.890;8.054;2023-06-22T06:31:03;10.90;;;8.70;;
8952;SDS011;4511;50.890;8.054;2023-06-22T06:33:32;9.50;;;8.60;;
8952;SDS011;4511;50.890;8.054;2023-06-22T06:35:59;9.67;;;8.87;;
8952;SDS011;4511;50.890;8.054;2023-06-22T06:38:28;10.27;;;9.30;;
8952;SDS011;4511;50.890;8.054;2023-06-22T06:40:56;9.73;;;8.83;;
8952;SDS011;4511;50.890;8.054;2023-06-22T06:43:24;9.53;;;8.73;;
8952;SDS011;4511;50.890;8.054;2023-06-22T06:45:50;11.57;;;10.33;;
8952;SDS011;4511;50.890;8.054;2023-06-22T06:48:17;11.27;;;10.13;;
8952;SDS011;4511;50.890;8.054;2023-06-22T06:50:44;12.47;;;11.47;;
8952;SDS011;4511;50.890;8.054;2023-06-22T06:53:11;12.67;;;11.67;;
8952;SDS011;4511;50.890;8.054;2023-06-22T06:55:38;11.93;;;10.83;;
8952;SDS011;4511;50.890;8.054;2023-06-22T06:58:06;13.20;;;11.93;;
8952;SDS011;4511;50.890;8.054;2023-06-22T07:00:34;12.17;;;11.17;;
8952;SDS011;4511;50.890;8.054;2023-06-22T07:03:02;12.40;;;11.23;;
8952;SDS011;4511;50.890;8.054;2023-06-22T07:05:29;12.80;;;11.60;;
8952;SDS011;4511;50.890;8.054;2023-06-22T07:07:56;12.57;;;11.37;;
8952;SDS011;4511;50.890;8.054;2023-06-22T07:10:24;13.03;;;11.73;;
8952;SDS011;4511;50.890;8.054;2023-06-22T07:12:51;12.07;;;11.07;;
8952;SDS011;4511;50.890;8.054;2023-06-22T07:15:19;12.87;;;11.67;;
8952;SDS011;4511;50.890;8.054;2023-06-22T07:17:46;13.77;;;12.47;;
8952;SDS011;4511;50.890;8.054;2023-06-22T07:20:13;13.30;;;12.13;;
8952;SDS011;4511;50.890;8.054;2023-06-22T07:22:40;13.17;;;11.87;;
8952;SDS011;4511;50.890;8.054;2023-06-22T07:25:09;12.87;;;11.77;;
8952;SDS011;4511;50.890;8.054;2023-06-22T07:27:39;12.87;;;11.87;;
8952;SDS011;4511;50.890;8.054;2023-06-22T07:30:10;14.73;;;13.30;;
8952;SDS011;4511;50.890;8.054;2023-06-22T07:32:39;13.03;;;11.93;;
8952;SDS011;4511;50.890;8.054;2023-06-22T07:35:06;13.80;;;12.60;;
8952;SDS011;4511;50.890;8.054;2023-06-22T07:37:33;12.67;;;11.47;;
8952;SDS011;4511;50.890;8.054;2023-06-22T07:40:00;13.47;;;12.37;;
8952;SDS011;4511;50.890;8.054;2023-06-22T07:42:31;13.07;;;11.97;;
8952;SDS011;4511;50.890;8.054;2023-06-22T07:44:58;13.00;;;11.90;;
8952;SDS011;4511;50.890;8.054;2023-06-22T07:47:25;12.30;;;11.30;;
8952;SDS011;4511;50.890;8.054;2023-06-22T07:49:54;11.47;;;10.43;;
8952;SDS011;4511;50.890;8.054;2023-06-22T07:52:23;10.90;;;10.00;;
8952;SDS011;4511;50.890;8.054;2023-06-22T07:54:50;12.03;;;10.80;;
8952;SDS011;4511;50.890;8.054;2023-06-22T07:57:17;11.97;;;10.87;;
8952;SDS011;4511;50.890;8.054;2023-06-22T07:59:44;11.40;;;10.40;;
8952;SDS011;4511;50.890;8.054;2023-06-22T08:02:10;11.83;;;10.83;;
8952;SDS011;4511;50.890;8.054;2023-06-22T08:04:37;11.77;;;10.50;;
8952;SDS011;4511;50.890;8.054;2023-06-22T08:07:06;11.70;;;10.50;;
8952;SDS011;4511;50.890;8.054;2023-06-22T08:09:32;11.00;;;10.10;;
8952;SDS011;4511;50.890;8.054;2023-06-22T08:11:59;11.37;;;10.37;;
8952;SDS011;4511;50.890;8.054;2023-06-22T08:14:26;11.50;;;10.50;;
8952;SDS011;4511;50.890;8.054;2023-06-22T08:16:53;11.37;;;10.47;;
8952;SDS011;4511;50.890;8.054;2023-06-22T08:19:20;11.60;;;10.60;;
8952;SDS011;4511;50.890;8.054;2023-06-22T08:21:47;11.53;;;10.43;;
8952;SDS011;4511;50.890;8.054;2023-06-22T08:24:15;10.57;;;9.73;;
8952;SDS011;4511;50.890;8.054;2023-06-22T08:26:41;10.37;;;9.47;;
8952;SDS011;4511;50.890;8.054;2023-06-22T08:29:08;10.13;;;9.23;;
8952;SDS011;4511;50.890;8.054;2023-06-22T08:31:35;10.60;;;9.70;;
8952;SDS011;4511;50.890;8.054;2023-06-22T08:34:02;13.10;;;10.13;;
8952;SDS011;4511;50.890;8.054;2023-06-22T08:36:29;11.00;;;10.10;;
8952;SDS011;4511;50.890;8.054;2023-06-22T08:38:57;10.57;;;9.60;;
8952;SDS011;4511;50.890;8.054;2023-06-22T08:41:27;10.43;;;9.43;;
8952;SDS011;4511;50.890;8.054;2023-06-22T08:43:54;9.07;;;8.10;;
8952;SDS011;4511;50.890;8.054;2023-06-22T08:46:22;9.47;;;8.47;;
8952;SDS011;4511;50.890;8.054;2023-06-22T08:48:55;9.50;;;8.57;;
8952;SDS011;4511;50.890;8.054;2023-06-22T08:51:23;9.57;;;8.67;;
8952;SDS011;4511;50.890;8.054;2023-06-22T08:53:50;9.10;;;8.30;;
8952;SDS011;4511;50.890;8.054;2023-06-22T08:56:16;9.07;;;8.27;;
8952;SDS011;4511;50.890;8.054;2023-06-22T08:58:45;9.13;;;8.30;;
8952;SDS011;4511;50.890;8.054;2023-06-22T09:01:12;9.20;;;8.37;;
8952;SDS011;4511;50.890;8.054;2023-06-22T09:03:40;8.63;;;7.83;;
8952;SDS011;4511;50.890;8.054;2023-06-22T09:06:07;8.73;;;7.87;;
8952;SDS011;4511;50.890;8.054;2023-06-22T09:08:35;8.63;;;7.93;;
8952;SDS011;4511;50.890;8.054;2023-06-22T09:11:02;8.80;;;8.00;;
8952;SDS011;4511;50.890;8.054;2023-06-22T09:13:29;8.53;;;7.83;;
8952;SDS011;4511;50.890;8.054;2023-06-22T09:15:58;8.37;;;7.60;;
8952;SDS011;4511;50.890;8.054;2023-06-22T09:18:25;8.73;;;7.80;;
8952;SDS011;4511;50.890;8.054;2023-06-22T09:20:52;9.13;;;8.00;;
8952;SDS011;4511;50.890;8.054;2023-06-22T09:23:19;8.60;;;7.87;;
8952;SDS011;4511;50.890;8.054;2023-06-22T09:25:46;10.07;;;8.07;;
8952;SDS011;4511;50.890;8.054;2023-06-22T09:28:13;8.10;;;7.40;;
8952;SDS011;4511;50.890;8.054;2023-06-22T09:30:40;7.83;;;7.10;;
8952;SDS011;4511;50.890;8.054;2023-06-22T09:33:08;7.90;;;7.20;;
8952;SDS011;4511;50.890;8.054;2023-06-22T09:35:35;8.13;;;7.43;;
8952;SDS011;4511;50.890;8.054;2023-06-22T09:38:02;8.17;;;7.53;;
8952;SDS011;4511;50.890;8.054;2023-06-22T09:40:29;8.23;;;7.53;;
8952;SDS011;4511;50.890;8.054;2023-06-22T09:42:57;7.87;;;7.17;;
8952;SDS011;4511;50.890;8.054;2023-06-22T09:45:24;8.43;;;7.53;;
8952;SDS011;4511;50.890;8.054;2023-06-22T09:47:51;8.10;;;7.40;;
8952;SDS011;4511;50.890;8.054;2023-06-22T09:50:19;8.13;;;7.33;;
8952;SDS011;4511;50.890;8.054;2023-06-22T09:52:46;8.17;;;7.33;;
8952;SDS011;4511;50.890;8.054;2023-06-22T09:55:15;8.03;;;7.27;;
8952;SDS011;4511;50.890;8.054;2023-06-22T09:57:43;7.30;;;6.63;;
8952;SDS011;4511;50.890;8.054;2023-06-22T10:00:11;7.37;;;6.67;;
8952;SDS011;4511;50.890;8.054;2023-06-22T10:02:40;8.57;;;7.03;;
8952;SDS011;4511;50.890;8.054;2023-06-22T10:05:08;7.43;;;6.83;;
8952;SDS011;4511;50.890;8.054;2023-06-22T10:07:37;7.43;;;6.77;;
8952;SDS011;4511;50.890;8.054;2023-06-22T10:10:07;7.60;;;6.93;;
8952;SDS011;4511;50.890;8.054;2023-06-22T10:12:35;7.77;;;7.07;;
8952;SDS011;4511;50.890;8.054;2023-06-22T10:15:02;10.90;;;6.97;;
8952;SDS011;4511;50.890;8.054;2023-06-22T10:17:29;7.50;;;6.80;;
8952;SDS011;4511;50.890;8.054;2023-06-22T10:19:56;7.67;;;7.07;;
8952;SDS011;4511;50.890;8.054;2023-06-22T10:22:23;7.87;;;7.07;;
8952;SDS011;4511;50.890;8.054;2023-06-22T10:24:52;8.10;;;7.30;;
8952;SDS011;4511;50.890;8.054;2023-06-22T10:27:18;7.80;;;6.70;;
8952;SDS011;4511;50.890;8.054;2023-06-22T10:29:45;7.97;;;7.27;;
8952;SDS011;4511;50.890;8.054;2023-06-22T10:32:14;7.87;;;7.17;;
8952;SDS011;4511;50.890;8.054;2023-06-22T10:34:41;8.00;;;7.30;;
8952;SDS011;4511;50.890;8.054;2023-06-22T10:37:08;8.57;;;7.30;;
8952;SDS011;4511;50.890;8.054;2023-06-22T10:39:34;7.50;;;6.83;;
8952;SDS011;4511;50.890;8.054;2023-06-22T10:42:03;7.77;;;7.03;;
8952;SDS011;4511;50.890;8.054;2023-06-22T10:44:30;8.27;;;7.57;;
8952;SDS011;4511;50.890;8.054;2023-06-22T10:46:57;7.77;;;7.00;;
8952;SDS011;4511;50.890;8.054;2023-06-22T10:49:24;8.40;;;7.60;;
8952;SDS011;4511;50.890;8.054;2023-06-22T10:51:50;8.30;;;7.50;;
8952;SDS011;4511;50.890;8.054;2023-06-22T10:54:17;8.03;;;7.30;;
8952;SDS011;4511;50.890;8.054;2023-06-22T10:56:44;8.97;;;8.10;;
8952;SDS011;4511;50.890;8.054;2023-06-22T10:59:12;8.70;;;8.00;;
8952;SDS011;4511;50.890;8.054;2023-06-22T11:01:39;9.67;;;8.70;;
8952;SDS011;4511;50.890;8.054;2023-06-22T11:04:05;9.50;;;8.70;;
8952;SDS011;4511;50.890;8.054;2023-06-22T11:06:32;8.37;;;7.67;;
8952;SDS011;4511;50.890;8.054;2023-06-22T11:08:59;9.47;;;8.40;;
8952;SDS011;4511;50.890;8.054;2023-06-22T11:11:26;10.97;;;8.20;;
8952;SDS011;4511;50.890;8.054;2023-06-22T11:13:53;9.17;;;8.47;;
8952;SDS011;4511;50.890;8.054;2023-06-22T11:16:21;9.03;;;8.30;;
8952;SDS011;4511;50.890;8.054;2023-06-22T11:18:48;9.53;;;8.63;;
8952;SDS011;4511;50.890;8.054;2023-06-22T11:21:14;10.07;;;9.17;;
8952;SDS011;4511;50.890;8.054;2023-06-22T11:23:41;10.73;;;9.67;;
8952;SDS011;4511;50.890;8.054;2023-06-22T11:26:08;11.93;;;10.67;;
8952;SDS011;4511;50.890;8.054;2023-06-22T11:28:35;11.40;;;10.27;;
8952;SDS011;4511;50.890;8.054;2023-06-22T11:31:02;11.70;;;10.60;;
8952;SDS011;4511;50.890;8.054;2023-06-22T11:33:31;11.30;;;10.17;;
8952;SDS011;4511;50.890;8.054;2023-06-22T11:35:58;10.93;;;9.93;;
8952;SDS011;4511;50.890;8.054;2023-06-22T11:38:25;11.77;;;10.70;;
8952;SDS011;4511;50.890;8.054;2023-06-22T11:40:51;11.53;;;10.53;;
8952;SDS011;4511;50.890;8.054;2023-06-22T11:43:18;11.40;;;10.30;;
8952;SDS011;4511;50.890;8.054;2023-06-22T11:45:45;11.57;;;10.47;;
8952;SDS011;4511;50.890;8.054;2023-06-22T11:48:12;11.00;;;9.93;;
8952;SDS011;4511;50.890;8.054;2023-06-22T11:50:40;11.30;;;10.27;;
8952;SDS011;4511;50.890;8.054;2023-06-22T11:53:07;11.03;;;9.80;;
8952;SDS011;4511;50.890;8.054;2023-06-22T11:55:34;11.53;;;10.40;;
8952;SDS011;4511;50.890;8.054;2023-06-22T11:58:00;10.93;;;9.80;;
8952;SDS011;4511;50.890;8.054;2023-06-22T12:00:28;11.23;;;10.13;;
8952;SDS011;4511;50.890;8.054;2023-06-22T12:02:55;11.30;;;10.30;;
8952;SDS011;4511;50.890;8.054;2023-06-22T12:05:22;11.40;;;10.40;;
8952;SDS011;4511;50.890;8.054;2023-06-22T12:07:52;10.87;;;9.87;;
8952;SDS011;4511;50.890;8.054;2023-06-22T12:10:19;10.67;;;9.73;;
8952;SDS011;4511;50.890;8.054;2023-06-22T12:12:46;11.20;;;10.20;;
8952;SDS011;4511;50.890;8.054;2023-06-22T12:15:13;10.70;;;9.60;;
8952;SDS011;4511;50.890;8.054;2023-06-22T12:17:40;10.47;;;9.57;;
8952;SDS011;4511;50.890;8.054;2023-06-22T12:20:07;11.40;;;10.40;;
8952;SDS011;4511;50.890;8.054;2023-06-22T12:22:35;11.73;;;10.53;;
8952;SDS011;4511;50.890;8.054;2023-06-22T12:25:04;12.60;;;10.93;;
8952;SDS011;4511;50.890;8.054;2023-06-22T12:27:32;12.63;;;11.40;;
8952;SDS011;4511;50.890;8.054;2023-06-22T12:29:58;12.33;;;11.13;;
8952;SDS011;4511;50.890;8.054;2023-06-22T12:32:25;11.07;;;10.17;;
8952;SDS011;4511;50.890;8.054;2023-06-22T12:34:52;10.43;;;9.53;;
8952;SDS011;4511;50.890;8.054;2023-06-22T12:37:19;10.13;;;9.20;;
8952;SDS011;4511;50.890;8.054;2023-06-22T12:39:45;10.30;;;9.40;;
8952;SDS011;4511;50.890;8.054;2023-06-22T12:42:14;9.97;;;8.97;;
8952;SDS011;4511;50.890;8.054;2023-06-22T12:44:41;9.00;;;8.13;;
8952;SDS011;4511;50.890;8.054;2023-06-22T12:47:08;8.47;;;7.60;;
8952;SDS011;4511;50.890;8.054;2023-06-22T12:49:36;7.63;;;7.00;;
8952;SDS011;4511;50.890;8.054;2023-06-22T12:52:03;7.73;;;6.93;;
8952;SDS011;4511;50.890;8.054;2023-06-22T12:54:34;6.60;;;6.00;;
8952;SDS011;4511;50.890;8.054;2023-06-22T12:57:01;6.77;;;5.30;;
8952;SDS011;4511;50.890;8.054;2023-06-22T12:59:29;5.00;;;4.60;;
8952;SDS011;4511;50.890;8.054;2023-06-22T13:01:56;5.57;;;5.00;;
8952;SDS011;4511;50.890;8.054;2023-06-22T13:04:22;4.87;;;4.43;;
8952;SDS011;4511;50.890;8.054;2023-06-22T13:06:49;5.13;;;4.60;;
8952;SDS011;4511;50.890;8.054;2023-06-22T13:09:17;5.63;;;5.03;;
8952;SDS011;4511;50.890;8.054;2023-06-22T13:11:44;5.23;;;4.73;;
8952;SDS011;4511;50.890;8.054;2023-06-22T13:14:11;5.13;;;4.63;;
8952;SDS011;4511;50.890;8.054;2023-06-22T13:16:39;5.53;;;4.70;;
8952;SDS011;4511;50.890;8.054;2023-06-22T13:19:06;7.63;;;4.20;;
8952;SDS011;4511;50.890;8.054;2023-06-22T13:21:33;4.97;;;4.47;;
8952;SDS011;4511;50.890;8.054;2023-06-22T13:23:59;4.67;;;4.20;;
8952;SDS011;4511;50.890;8.054;2023-06-22T13:26:27;4.43;;;4.03;;
8952;SDS011;4511;50.890;8.054;2023-06-22T13:28:56;4.63;;;4.20;;
8952;SDS011;4511;50.890;8.054;2023-06-22T13:31:23;4.93;;;4.43;;
8952;SDS011;4511;50.890;8.054;2023-06-22T13:33:51;5.53;;;4.47;;
8952;SDS011;4511;50.890;8.054;2023-06-22T13:36:18;5.70;;;4.23;;
8952;SDS011;4511;50.890;8.054;2023-06-22T13:38:45;7.87;;;4.40;;
8952;SDS011;4511;50.890;8.054;2023-06-22T13:41:12;8.83;;;4.00;;
8952;SDS011;4511;50.890;8.054;2023-06-22T13:43:39;6.93;;;4.10;;
8952;SDS011;4511;50.890;8.054;2023-06-22T13:46:05;5.53;;;4.43;;
8952;SDS011;4511;50.890;8.054;2023-06-22T13:48:32;4.50;;;3.97;;
8952;SDS011;4511;50.890;8.054;2023-06-22T13:51:00;5.90;;;4.53;;
8952;SDS011;4511;50.890;8.054;2023-06-22T13:53:27;6.17;;;4.50;;
8952;SDS011;4511;50.890;8.054;2023-06-22T13:55:54;4.50;;;4.10;;
8952;SDS011;4511;50.890;8.054;2023-06-22T13:58:21;5.37;;;4.70;;
8952;SDS011;4511;50.890;8.054;2023-06-22T14:00:48;4.47;;;4.07;;
8952;SDS011;4511;50.890;8.054;2023-06-22T14:03:15;6.67;;;4.47;;
8952;SDS011;4511;50.890;8.054;2023-06-22T14:05:42;5.97;;;4.80;;
8952;SDS011;4511;50.890;8.054;2023-06-22T14:08:11;5.63;;;5.10;;
8952;SDS011;4511;50.890;8.054;2023-06-22T14:10:38;5.67;;;5.17;;
8952;SDS011;4511;50.890;8.054;2023-06-22T14:13:04;6.23;;;5.50;;
8952;SDS011;4511;50.890;8.054;2023-06-22T14:15:32;6.00;;;5.37;;
8952;SDS011;4511;50.890;8.054;2023-06-22T14:17:58;6.63;;;5.10;;
8952;SDS011;4511;50.890;8.054;2023-06-22T14:20:25;6.83;;;5.20;;
8952;SDS011;4511;50.890;8.054;2023-06-22T14:22:52;6.57;;;5.23;;
8952;SDS011;4511;50.890;8.054;2023-06-22T14:25:20;5.53;;;4.83;;
8952;SDS011;4511;50.890;8.054;2023-06-22T14:27:47;7.23;;;5.30;;
8952;SDS011;4511;50.890;8.054;2023-06-22T14:30:13;6.00;;;5.50;;
8952;SDS011;4511;50.890;8.054;2023-06-22T14:32:42;6.43;;;5.10;;
8952;SDS011;4511;50.890;8.054;2023-06-22T14:35:10;6.67;;;5.00;;
8952;SDS011;4511;50.890;8.054;2023-06-22T14:37:36;5.93;;;5.33;;
8952;SDS011;4511;50.890;8.054;2023-06-22T14:40:03;6.47;;;5.47;;
8952;SDS011;4511;50.890;8.054;2023-06-22T14:42:32;7.73;;;5.57;;
8952;SDS011;4511;50.890;8.054;2023-06-22T14:44:59;6.00;;;5.40;;
8952;SDS011;4511;50.890;8.054;2023-06-22T14:47:25;6.53;;;5.90;;
8952;SDS011;4511;50.890;8.054;2023-06-22T14:49:53;14.47;;;7.27;;
8952;SDS011;4511;50.890;8.054;2023-06-22T14:52:20;9.97;;;6.90;;
8952;SDS011;4511;50.890;8.054;2023-06-22T14:54:47;13.67;;;7.23;;
8952;SDS011;4511;50.890;8.054;2023-06-22T14:57:13;12.53;;;8.00;;
8952;SDS011;4511;50.890;8.054;2023-06-22T14:59:44;9.67;;;7.00;;
8952;SDS011;4511;50.890;8.054;2023-06-22T15:02:11;13.50;;;8.83;;